createdAt,value
2019-01-20T00:00:41.499Z,100360.33
2019-01-20T00:03:09.088Z,100360.21
2019-01-20T00:05:37.080Z,100362.17
2019-01-20T00:08:05.048Z,100360.76
2019-01-20T00:10:32.691Z,100362.55
2019-01-20T00:13:00.698Z,100351.94
2019-01-20T00:15:28.749Z,100351.30
2019-01-20T00:17:56.389Z,100351.22
2019-01-20T00:20:24.107Z,100350.84
2019-01-20T00:22:51.851Z,100352.97
2019-01-20T00:25:19.814Z,100359.13
2019-01-20T00:27:47.773Z,100349.67
2019-01-20T00:30:15.747Z,100356.50
2019-01-20T00:32:43.713Z,100354.41
2019-01-20T00:35:11.355Z,100352.53
2019-01-20T00:37:39.345Z,100352.12
2019-01-20T00:40:07.330Z,100358.58
2019-01-20T00:42:35.288Z,100357.80
2019-01-20T00:45:03.303Z,100358.54
2019-01-20T00:47:31.346Z,100356.76
2019-01-20T00:49:59.297Z,100351.97
2019-01-20T00:52:27.265Z,100350.30
2019-01-20T00:54:55.235Z,100344.46
2019-01-20T00:57:23.205Z,100346.69
2019-01-20T00:59:51.172Z,100350.47
2019-01-20T01:02:19.246Z,100347.64
2019-01-20T01:04:46.877Z,100349.07
2019-01-20T01:07:14.881Z,100348.13
2019-01-20T01:09:42.850Z,100349.33
2019-01-20T01:12:12.140Z,100347.27
2019-01-20T01:14:39.778Z,100343.75
2019-01-20T01:17:07.497Z,100341.66
2019-01-20T01:19:35.441Z,100341.66
2019-01-20T01:22:03.416Z,100339.98
2019-01-20T01:24:31.386Z,100346.22
2019-01-20T01:26:59.030Z,100342.19
2019-01-20T01:29:27.037Z,100335.34
2019-01-20T01:31:54.985Z,100344.45
2019-01-20T01:34:22.953Z,100335.05
2019-01-20T01:36:50.598Z,100338.41
2019-01-20T01:39:18.597Z,100333.00
2019-01-20T01:41:46.557Z,100332.03
2019-01-20T01:44:14.199Z,100324.33
2019-01-20T01:46:42.205Z,100329.09
2019-01-20T01:49:10.159Z,100333.49
2019-01-20T01:51:37.815Z,100327.06
2019-01-20T01:54:05.446Z,100327.33
2019-01-20T01:56:33.089Z,100321.47
2019-01-20T01:59:00.726Z,100321.45
2019-01-20T02:01:28.410Z,100315.70
2019-01-20T02:03:56.334Z,100322.42
2019-01-20T02:06:24.309Z,100314.86
2019-01-20T02:08:52.295Z,100315.41
2019-01-20T02:11:19.946Z,100315.72
2019-01-20T02:13:47.906Z,100314.27
2019-01-20T02:16:15.881Z,100317.30
2019-01-20T02:18:43.514Z,100316.95
2019-01-20T02:21:11.516Z,100314.17
2019-01-20T02:23:39.786Z,100313.97
2019-01-20T02:26:07.442Z,100317.01
2019-01-20T02:28:35.422Z,100305.77
2019-01-20T02:31:03.384Z,100304.83
2019-01-20T02:33:31.357Z,100309.04
2019-01-20T02:35:59.003Z,100310.50
2019-01-20T02:38:26.993Z,100304.89
2019-01-20T02:40:54.956Z,100312.76
2019-01-20T02:43:22.940Z,100307.72
2019-01-20T02:45:50.568Z,100305.56
2019-01-20T02:48:18.561Z,100295.95
2019-01-20T02:50:46.532Z,100304.14
2019-01-20T02:53:14.514Z,100308.45
2019-01-20T02:55:42.152Z,100301.89
2019-01-20T02:58:10.131Z,100307.60
2019-01-20T03:00:37.773Z,100304.27
2019-01-20T03:03:05.781Z,100313.36
2019-01-20T03:05:33.734Z,100308.30
2019-01-20T03:08:01.390Z,100311.03
2019-01-20T03:10:29.364Z,100306.59
2019-01-20T03:12:57.014Z,100307.80
2019-01-20T03:15:24.998Z,100313.80
2019-01-20T03:17:52.647Z,100312.81
2019-01-20T03:20:20.589Z,100307.44
2019-01-20T03:22:48.508Z,100311.27
2019-01-20T03:25:16.135Z,100312.47
2019-01-20T03:27:43.769Z,100314.16
2019-01-20T03:30:11.691Z,100313.35
2019-01-20T03:32:39.684Z,100307.86
2019-01-20T03:35:07.589Z,100310.05
2019-01-20T03:37:35.237Z,100312.78
2019-01-20T03:40:03.157Z,100304.66
2019-01-20T03:42:31.129Z,100307.09
2019-01-20T03:44:59.105Z,100299.69
2019-01-20T03:47:27.070Z,100300.98
2019-01-20T03:49:55.034Z,100301.85
2019-01-20T03:52:23.009Z,100299.51
2019-01-20T03:54:50.977Z,100296.72
2019-01-20T03:57:20.245Z,100301.85
2019-01-20T03:59:47.862Z,100295.73
2019-01-20T04:02:17.084Z,100299.41
2019-01-20T04:04:45.016Z,100301.69
2019-01-20T04:07:12.977Z,100303.03
2019-01-20T04:09:40.941Z,100299.97
2019-01-20T04:12:08.913Z,100300.41
2019-01-20T04:14:36.978Z,100299.70
2019-01-20T04:17:04.953Z,100309.47
2019-01-20T04:19:32.925Z,100301.30
2019-01-20T04:22:00.558Z,100301.11
2019-01-20T04:24:28.199Z,100294.94
2019-01-20T04:26:55.827Z,100301.22
2019-01-20T04:29:23.468Z,100297.27
2019-01-20T04:31:51.443Z,100300.75
2019-01-20T04:34:19.090Z,100308.22
2019-01-20T04:36:47.075Z,100306.52
2019-01-20T04:39:15.041Z,100295.41
2019-01-20T04:41:42.682Z,100296.22
2019-01-20T04:44:10.677Z,100294.23
2019-01-20T04:46:38.646Z,100300.03
2019-01-20T04:49:06.622Z,100299.42
2019-01-20T04:51:34.581Z,100307.94
2019-01-20T04:54:02.502Z,100305.99
2019-01-20T04:56:30.131Z,100310.81
2019-01-20T04:58:58.086Z,100306.31
2019-01-20T05:01:25.725Z,100308.83
2019-01-20T05:03:53.362Z,100309.48
2019-01-20T05:06:21.279Z,100318.87
2019-01-20T05:08:49.226Z,100318.13
2019-01-20T05:11:17.522Z,100313.19
2019-01-20T05:13:45.172Z,100311.41
2019-01-20T05:16:13.156Z,100311.62
2019-01-20T05:18:40.798Z,100312.80
2019-01-20T05:21:08.435Z,100306.95
2019-01-20T05:23:36.072Z,100312.00
2019-01-20T05:26:04.013Z,100311.55
2019-01-20T05:28:31.959Z,100311.11
2019-01-20T05:30:59.962Z,100317.47
2019-01-20T05:33:27.916Z,100310.08
2019-01-20T05:35:55.900Z,100311.33
2019-01-20T05:38:23.854Z,100316.70
2019-01-20T05:40:51.840Z,100320.00
2019-01-20T05:43:19.807Z,100324.25
2019-01-20T05:45:47.769Z,100322.04
2019-01-20T05:48:15.737Z,100325.09
2019-01-20T05:50:43.367Z,100327.43
2019-01-20T05:53:11.005Z,100333.77
2019-01-20T05:55:38.635Z,100332.56
2019-01-20T05:58:06.286Z,100329.44
2019-01-20T06:00:34.483Z,100331.78
2019-01-20T06:03:02.114Z,100330.60
2019-01-20T06:05:29.743Z,100327.66
2019-01-20T06:07:57.390Z,100325.92
2019-01-20T06:10:25.314Z,100332.22
2019-01-20T06:12:54.369Z,100331.69
2019-01-20T06:15:22.479Z,100332.95
2019-01-20T06:17:50.145Z,100336.36
2019-01-20T06:20:18.017Z,100338.26
2019-01-20T06:22:45.986Z,100344.12
2019-01-20T06:25:13.979Z,100345.58
2019-01-20T06:27:41.603Z,100353.80
2019-01-20T06:30:09.257Z,100351.42
2019-01-20T06:32:36.888Z,100347.95
2019-01-20T06:35:04.530Z,100357.14
2019-01-20T06:37:32.460Z,100351.39
2019-01-20T06:40:00.176Z,100353.14
2019-01-20T06:42:28.097Z,100360.48
2019-01-20T06:44:55.736Z,100360.94
2019-01-20T06:47:23.369Z,100364.81
2019-01-20T06:49:51.014Z,100371.45
2019-01-20T06:52:18.949Z,100379.45
2019-01-20T06:54:46.585Z,100378.72
2019-01-20T06:57:14.596Z,100385.00
2019-01-20T06:59:42.239Z,100377.37
2019-01-20T07:02:10.230Z,100384.61
2019-01-20T07:04:37.863Z,100381.47
2019-01-20T07:07:05.846Z,100384.84
2019-01-20T07:09:33.816Z,100388.64
2019-01-20T07:12:01.464Z,100384.67
2019-01-20T07:14:29.098Z,100390.30
2019-01-20T07:16:56.728Z,100378.63
2019-01-20T07:19:24.670Z,100383.95
2019-01-20T07:21:52.637Z,100384.31
2019-01-20T07:24:21.427Z,100391.34
2019-01-20T07:26:49.401Z,100387.84
2019-01-20T07:29:17.364Z,100389.06
2019-01-20T07:31:45.353Z,100395.39
2019-01-20T07:34:13.307Z,100399.91
2019-01-20T07:36:40.939Z,100403.58
2019-01-20T07:39:08.939Z,100404.80
2019-01-20T07:41:36.918Z,100410.23
2019-01-20T07:44:04.880Z,100418.30
2019-01-20T07:46:32.514Z,100411.07
2019-01-20T07:49:00.509Z,100419.95
2019-01-20T07:51:28.481Z,100421.23
2019-01-20T07:53:56.470Z,100425.91
2019-01-20T07:56:24.417Z,100425.45
2019-01-20T07:58:52.392Z,100433.47
2019-01-20T08:01:20.355Z,100434.22
2019-01-20T08:03:48.325Z,100440.61
2019-01-20T08:06:16.603Z,100444.14
2019-01-20T08:08:44.576Z,100445.89
2019-01-20T08:11:12.542Z,100443.04
2019-01-20T08:13:40.179Z,100444.27
2019-01-20T08:16:07.822Z,100443.81
2019-01-20T08:18:35.735Z,100451.66
2019-01-20T08:21:03.377Z,100448.81
2019-01-20T08:23:31.008Z,100448.36
2019-01-20T08:25:58.930Z,100458.33
2019-01-20T08:28:26.573Z,100452.67
2019-01-20T08:30:54.211Z,100458.11
2019-01-20T08:33:22.119Z,100446.33
2019-01-20T08:35:49.838Z,100455.44
2019-01-20T08:38:17.476Z,100458.50
2019-01-20T08:40:45.116Z,100456.30
2019-01-20T08:43:12.749Z,100453.73
2019-01-20T08:45:40.396Z,100453.41
2019-01-20T08:48:08.331Z,100457.67
2019-01-20T08:50:35.983Z,100463.83
2019-01-20T08:53:03.934Z,100460.40
2019-01-20T08:55:31.903Z,100462.77
2019-01-20T08:57:59.549Z,100467.17
2019-01-20T09:00:27.541Z,100464.91
2019-01-20T09:02:55.505Z,100458.97
2019-01-20T09:05:23.489Z,100467.37
2019-01-20T09:07:51.205Z,100464.63
2019-01-20T09:10:19.209Z,100468.48
2019-01-20T09:12:47.126Z,100471.12
2019-01-20T09:15:14.841Z,100460.57
2019-01-20T09:17:42.811Z,100465.14
2019-01-20T09:20:10.457Z,100458.63
2019-01-20T09:22:38.447Z,100457.19
2019-01-20T09:25:06.415Z,100461.61
2019-01-20T09:27:34.062Z,100464.74
2019-01-20T09:30:02.047Z,100462.17
2019-01-20T09:32:30.017Z,100461.47
2019-01-20T09:34:57.982Z,100461.34
2019-01-20T09:37:25.966Z,100465.51
2019-01-20T09:39:53.921Z,100474.91
2019-01-20T09:42:21.566Z,100472.38
2019-01-20T09:44:49.549Z,100475.98
2019-01-20T09:47:17.524Z,100471.64
2019-01-20T09:49:45.167Z,100469.39
2019-01-20T09:52:13.169Z,100463.67
2019-01-20T09:54:41.126Z,100475.97
2019-01-20T09:57:09.103Z,100471.02
2019-01-20T09:59:36.829Z,100472.03
2019-01-20T10:02:04.472Z,100462.47
2019-01-20T10:04:32.392Z,100462.61
2019-01-20T10:07:00.357Z,100464.70
2019-01-20T10:09:28.329Z,100467.06
2019-01-20T10:11:56.299Z,100466.21
2019-01-20T10:14:23.937Z,100465.53
2019-01-20T10:16:53.025Z,100462.39
2019-01-20T10:19:21.021Z,100466.77
2019-01-20T10:21:48.992Z,100464.61
2019-01-20T10:24:16.983Z,100461.59
2019-01-20T10:26:44.630Z,100467.34
2019-01-20T10:29:12.594Z,100461.77
2019-01-20T10:31:40.568Z,100465.47
2019-01-20T10:34:08.549Z,100458.43
2019-01-20T10:36:36.507Z,100460.17
2019-01-20T10:39:06.213Z,100459.37
2019-01-20T10:41:34.183Z,100471.15
2019-01-20T10:44:02.362Z,100467.89
2019-01-20T10:46:30.429Z,100468.55
2019-01-20T10:48:58.408Z,100459.81
2019-01-20T10:51:26.059Z,100468.17
2019-01-20T10:53:53.704Z,100454.44
2019-01-20T10:56:21.695Z,100464.97
2019-01-20T10:58:49.672Z,100462.11
2019-01-20T11:01:17.633Z,100453.83
2019-01-20T11:03:45.612Z,100458.38
2019-01-20T11:06:13.271Z,100453.69
2019-01-20T11:08:41.234Z,100453.63
2019-01-20T11:11:09.205Z,100454.09
2019-01-20T11:13:37.182Z,100458.20
2019-01-20T11:16:04.834Z,100459.85
2019-01-20T11:18:32.809Z,100455.30
2019-01-20T11:21:00.457Z,100457.04
2019-01-20T11:23:28.472Z,100461.55
2019-01-20T11:25:56.419Z,100465.28
2019-01-20T11:28:24.535Z,100456.98
2019-01-20T11:30:52.207Z,100460.56
2019-01-20T11:33:19.838Z,100463.92
2019-01-20T11:35:48.090Z,100459.22
2019-01-20T11:38:15.727Z,100459.05
2019-01-20T11:40:43.715Z,100456.88
2019-01-20T11:43:11.336Z,100462.27
2019-01-20T11:45:38.972Z,100456.29
2019-01-20T11:48:06.905Z,100459.47
2019-01-20T11:50:34.541Z,100470.06
2019-01-20T11:53:02.519Z,100458.83
2019-01-20T11:55:30.152Z,100456.12
2019-01-20T11:57:58.065Z,100456.48
2019-01-20T12:00:26.043Z,100458.87
2019-01-20T12:02:54.028Z,100453.30
2019-01-20T12:05:21.994Z,100452.48
2019-01-20T12:07:49.943Z,100455.03
2019-01-20T12:10:17.921Z,100455.02
2019-01-20T12:12:49.056Z,100456.85
2019-01-20T12:15:16.761Z,100453.66
2019-01-20T12:17:44.705Z,100451.47
2019-01-20T12:20:12.664Z,100450.25
2019-01-20T12:22:40.936Z,100451.77
2019-01-20T12:25:08.571Z,100450.22
2019-01-20T12:27:36.226Z,100434.52
2019-01-20T12:30:04.130Z,100437.02
2019-01-20T12:32:31.771Z,100441.55
2019-01-20T12:34:59.657Z,100431.85
2019-01-20T12:37:27.296Z,100427.73
2019-01-20T12:39:54.934Z,100436.12
2019-01-20T12:42:22.850Z,100425.81
2019-01-20T12:44:50.544Z,100427.90
2019-01-20T12:47:18.491Z,100419.75
2019-01-20T12:49:46.452Z,100421.99
2019-01-20T12:52:14.425Z,100420.97
2019-01-20T12:54:42.066Z,100417.83
2019-01-20T12:57:10.054Z,100416.63
2019-01-20T12:59:38.034Z,100420.25
2019-01-20T13:02:05.672Z,100417.72
2019-01-20T13:04:33.552Z,100418.09
2019-01-20T13:07:01.183Z,100416.90
2019-01-20T13:09:29.084Z,100417.13
2019-01-20T13:11:57.054Z,100421.97
2019-01-20T13:14:25.023Z,100425.42
2019-01-20T13:16:52.656Z,100425.22
2019-01-20T13:19:20.364Z,100424.02
2019-01-20T13:21:47.993Z,100425.55
2019-01-20T13:24:15.991Z,100427.28
2019-01-20T13:26:43.612Z,100428.13
2019-01-20T13:29:11.509Z,100427.26
2019-01-20T13:31:39.477Z,100424.20
2019-01-20T13:34:07.117Z,100428.11
2019-01-20T13:36:35.007Z,100422.30
2019-01-20T13:39:03.930Z,100425.67
2019-01-20T13:41:31.877Z,100419.13
2019-01-20T13:43:59.839Z,100421.42
2019-01-20T13:46:27.813Z,100419.27
2019-01-20T13:48:55.777Z,100428.56
2019-01-20T13:51:23.749Z,100424.88
2019-01-20T13:53:51.393Z,100431.55
2019-01-20T13:56:19.388Z,100427.39
2019-01-20T13:58:47.345Z,100424.70
2019-01-20T14:01:15.321Z,100427.61
2019-01-20T14:03:42.959Z,100427.34
2019-01-20T14:06:10.946Z,100424.09
2019-01-20T14:08:44.165Z,100430.48
2019-01-20T14:11:08.226Z,100438.00
2019-01-20T14:13:35.933Z,100432.43
2019-01-20T14:16:03.851Z,100430.17
2019-01-20T14:18:31.823Z,100440.19
2019-01-20T14:20:59.788Z,100439.41
2019-01-20T14:23:27.759Z,100438.91
2019-01-20T14:25:55.734Z,100445.59
2019-01-20T14:28:23.708Z,100449.61
2019-01-20T14:30:51.674Z,100450.02
2019-01-20T14:33:19.666Z,100456.38
2019-01-20T14:35:47.611Z,100457.05
2019-01-20T14:38:15.582Z,100456.66
2019-01-20T14:40:43.546Z,100457.78
2019-01-20T14:43:11.522Z,100459.97
2019-01-20T14:45:39.486Z,100460.13
2019-01-20T14:48:07.131Z,100464.41
2019-01-20T14:50:34.765Z,100455.62
2019-01-20T14:53:02.682Z,100457.73
2019-01-20T14:55:30.316Z,100465.88
2019-01-20T14:57:57.955Z,100470.02
2019-01-20T15:00:25.588Z,100467.72
2019-01-20T15:02:53.538Z,100475.61
2019-01-20T15:05:21.506Z,100475.02
2019-01-20T15:07:49.476Z,100477.43
2019-01-20T15:10:17.119Z,100487.73
2019-01-20T15:12:45.104Z,100485.57
2019-01-20T15:15:13.088Z,100499.22
2019-01-20T15:17:41.044Z,100487.56
2019-01-20T15:20:08.997Z,100495.13
2019-01-20T15:22:36.878Z,100492.97
2019-01-20T15:25:04.854Z,100498.91
2019-01-20T15:27:32.828Z,100498.85
2019-01-20T15:30:00.806Z,100503.17
2019-01-20T15:32:28.764Z,100502.58
2019-01-20T15:34:56.730Z,100504.06
2019-01-20T15:37:24.359Z,100502.96
2019-01-20T15:39:51.986Z,100499.23
2019-01-20T15:42:19.939Z,100504.50
2019-01-20T15:44:47.888Z,100514.05
2019-01-20T15:47:15.863Z,100507.63
2019-01-20T15:49:43.829Z,100507.95
2019-01-20T15:52:11.803Z,100512.88
2019-01-20T15:54:39.771Z,100507.47
2019-01-20T15:57:07.744Z,100516.66
2019-01-20T15:59:35.707Z,100516.49
2019-01-20T16:02:03.683Z,100520.52
2019-01-20T16:04:31.326Z,100526.03
2019-01-20T16:06:59.309Z,100526.40
2019-01-20T16:09:26.945Z,100526.19
2019-01-20T16:11:54.844Z,100530.30
2019-01-20T16:14:22.487Z,100537.83
2019-01-20T16:16:50.475Z,100537.16
2019-01-20T16:19:18.469Z,100539.64
2019-01-20T16:21:46.409Z,100541.93
2019-01-20T16:24:14.052Z,100543.58
2019-01-20T16:26:42.378Z,100548.02
2019-01-20T16:29:10.328Z,100545.16
2019-01-20T16:31:39.918Z,100554.11
2019-01-20T16:34:07.698Z,100553.62
2019-01-20T16:36:35.981Z,100555.88
2019-01-20T16:39:03.760Z,100559.95
2019-01-20T16:41:31.402Z,100568.20
2019-01-20T16:43:59.365Z,100570.98
2019-01-20T16:46:27.336Z,100578.97
2019-01-20T16:48:55.308Z,100575.05
2019-01-20T16:51:23.281Z,100583.26
2019-01-20T16:53:51.256Z,100581.47
2019-01-20T16:56:18.895Z,100589.20
2019-01-20T16:58:51.208Z,100590.33
2019-01-20T17:01:15.892Z,100588.33
2019-01-20T17:03:43.543Z,100598.17
2019-01-20T17:06:11.507Z,100598.39
2019-01-20T17:08:39.228Z,100600.41
2019-01-20T17:11:07.134Z,100607.28
2019-01-20T17:13:34.765Z,100607.45
2019-01-20T17:16:02.491Z,100609.46
2019-01-20T17:18:30.117Z,100610.79
2019-01-20T17:20:58.107Z,100610.03
2019-01-20T17:23:26.063Z,100616.88
2019-01-20T17:25:54.053Z,100620.53
2019-01-20T17:28:22.006Z,100621.74
2019-01-20T17:30:49.992Z,100631.26
2019-01-20T17:33:17.942Z,100622.89
2019-01-20T17:35:45.918Z,100629.02
2019-01-20T17:38:13.881Z,100631.63
2019-01-20T17:40:41.857Z,100634.36
2019-01-20T17:43:09.821Z,100636.99
2019-01-20T17:45:37.792Z,100641.20
2019-01-20T17:48:05.435Z,100645.06
2019-01-20T17:50:33.438Z,100643.00
2019-01-20T17:53:01.391Z,100645.91
2019-01-20T17:55:29.363Z,100645.09
2019-01-20T17:57:57.004Z,100650.35
2019-01-20T18:00:27.638Z,100650.53
2019-01-20T18:02:55.625Z,100653.94
2019-01-20T18:05:23.592Z,100658.56
2019-01-20T18:07:51.568Z,100659.52
2019-01-20T18:10:19.553Z,100657.59
2019-01-20T18:12:47.507Z,100665.59
2019-01-20T18:15:15.473Z,100660.06
2019-01-20T18:17:43.442Z,100670.75
2019-01-20T18:20:11.093Z,100670.70
2019-01-20T18:22:39.079Z,100673.45
2019-01-20T18:25:06.799Z,100669.96
2019-01-20T18:27:34.821Z,100675.01
2019-01-20T18:30:02.476Z,100672.02
2019-01-20T18:32:30.446Z,100679.97
2019-01-20T18:34:58.128Z,100680.55
2019-01-20T18:37:25.779Z,100682.97
2019-01-20T18:39:53.734Z,100686.88
2019-01-20T18:42:21.709Z,100685.66
2019-01-20T18:44:49.677Z,100691.39
2019-01-20T18:47:17.328Z,100689.22
2019-01-20T18:49:45.312Z,100692.38
2019-01-20T18:52:12.958Z,100696.57
2019-01-20T18:54:40.938Z,100693.43
2019-01-20T18:57:08.909Z,100703.01
2019-01-20T18:59:36.853Z,100703.05
2019-01-20T19:02:04.856Z,100702.11
2019-01-20T19:04:32.823Z,100704.55
2019-01-20T19:07:00.470Z,100702.30
2019-01-20T19:09:28.113Z,100708.84
2019-01-20T19:11:55.770Z,100711.45
2019-01-20T19:14:23.751Z,100717.83
2019-01-20T19:16:51.407Z,100716.31
2019-01-20T19:19:19.040Z,100718.69
2019-01-20T19:21:46.966Z,100724.19
2019-01-20T19:24:14.941Z,100723.44
2019-01-20T19:26:42.584Z,100726.94
2019-01-20T19:29:10.566Z,100729.92
2019-01-20T19:31:38.281Z,100733.64
2019-01-20T19:34:06.199Z,100730.91
2019-01-20T19:36:33.849Z,100733.35
2019-01-20T19:39:01.830Z,100731.02
2019-01-20T19:41:29.480Z,100734.43
2019-01-20T19:43:57.467Z,100738.66
2019-01-20T19:46:25.453Z,100743.59
2019-01-20T19:48:53.406Z,100745.77
2019-01-20T19:51:21.380Z,100745.39
2019-01-20T19:53:49.343Z,100754.43
2019-01-20T19:56:17.317Z,100750.59
2019-01-20T19:58:45.285Z,100752.36
2019-01-20T20:01:13.018Z,100749.22
2019-01-20T20:03:41.018Z,100760.92
2019-01-20T20:06:08.675Z,100752.43
2019-01-20T20:08:36.651Z,100762.02
2019-01-20T20:11:04.371Z,100764.55
2019-01-20T20:13:32.003Z,100764.18
2019-01-20T20:15:59.654Z,100771.91
2019-01-20T20:18:27.300Z,100767.67
2019-01-20T20:20:55.263Z,100778.89
2019-01-20T20:23:22.905Z,100781.62
2019-01-20T20:25:50.581Z,100780.41
2019-01-20T20:28:18.564Z,100787.70
2019-01-20T20:30:46.206Z,100781.84
2019-01-20T20:33:13.877Z,100789.35
2019-01-20T20:35:41.534Z,100788.21
2019-01-20T20:38:09.519Z,100789.90
2019-01-20T20:40:37.242Z,100794.81
2019-01-20T20:43:04.880Z,100794.84
2019-01-20T20:45:32.820Z,100802.55
2019-01-20T20:48:00.813Z,100802.24
2019-01-20T20:50:28.753Z,100802.17
2019-01-20T20:52:56.725Z,100808.88
2019-01-20T20:55:24.361Z,100812.32
2019-01-20T20:57:52.356Z,100812.39
2019-01-20T21:00:19.999Z,100812.96
2019-01-20T21:02:47.644Z,100817.64
2019-01-20T21:05:15.287Z,100824.66
2019-01-20T21:07:43.209Z,100817.70
2019-01-20T21:10:10.859Z,100825.75
2019-01-20T21:12:38.501Z,100821.61
2019-01-20T21:15:06.416Z,100827.91
2019-01-20T21:17:34.062Z,100836.11
2019-01-20T21:20:02.033Z,100828.80
2019-01-20T21:22:30.000Z,100833.94
2019-01-20T21:24:57.971Z,100832.42
2019-01-20T21:27:25.613Z,100837.16
2019-01-20T21:29:53.601Z,100840.30
2019-01-20T21:32:21.256Z,100839.83
2019-01-20T21:34:49.236Z,100846.86
2019-01-20T21:37:16.884Z,100848.48
2019-01-20T21:39:44.520Z,100851.28
2019-01-20T21:42:12.425Z,100853.75
2019-01-20T21:44:40.406Z,100864.70
2019-01-20T22:01:43.916Z,100874.94
2019-01-20T22:04:11.556Z,100871.97
2019-01-20T22:06:39.527Z,100879.71
2019-01-20T22:09:07.500Z,100887.69
2019-01-20T22:11:35.481Z,100882.02
2019-01-20T22:14:03.122Z,100878.05
2019-01-20T22:16:30.773Z,100885.48
2019-01-20T22:18:58.765Z,100888.65
2019-01-20T22:21:26.732Z,100887.22
2019-01-20T22:23:54.360Z,100887.22
2019-01-20T22:26:22.025Z,100889.80
2019-01-20T22:28:49.679Z,100894.11
2019-01-20T22:31:17.315Z,100885.71
2019-01-20T22:33:45.251Z,100891.17
2019-01-20T22:36:13.226Z,100892.31
2019-01-20T22:38:41.191Z,100890.10
2019-01-20T22:41:08.831Z,100887.02
2019-01-20T22:43:36.834Z,100898.40
2019-01-20T22:46:04.790Z,100894.05
2019-01-20T22:48:32.440Z,100896.09
2019-01-20T22:51:00.074Z,100900.83
2019-01-20T22:53:27.986Z,100905.93
2019-01-20T22:55:55.622Z,100906.36
2019-01-20T22:58:23.614Z,100909.57
2019-01-20T23:00:53.432Z,100911.74
2019-01-20T23:03:21.399Z,100906.42
2019-01-20T23:05:49.041Z,100905.28
2019-01-20T23:08:17.058Z,100908.20
2019-01-20T23:10:44.996Z,100902.52
2019-01-20T23:13:13.004Z,100901.16
2019-01-20T23:15:40.697Z,100906.38
2019-01-20T23:18:08.599Z,100906.82
2019-01-20T23:20:36.243Z,100908.69
2019-01-20T23:23:04.230Z,100907.00
2019-01-20T23:25:32.221Z,100909.69
2019-01-20T23:27:59.877Z,100907.83
2019-01-20T23:30:27.829Z,100914.98
2019-01-20T23:32:55.811Z,100908.19
2019-01-20T23:35:23.771Z,100910.47
2019-01-20T23:37:51.766Z,100912.84
2019-01-20T23:40:19.715Z,100915.18
2019-01-20T23:42:47.684Z,100917.61
2019-01-20T23:45:15.322Z,100924.39
2019-01-20T23:47:43.343Z,100917.78
2019-01-20T23:50:11.284Z,100924.09
2019-01-20T23:52:38.967Z,100923.55
2019-01-20T23:55:06.914Z,100924.93
2019-01-20T23:57:34.886Z,100922.89
